createdAt,value
2022-08-28T00:00:01.171Z,13.52
2022-08-28T00:02:27.781Z,13.33
2022-08-28T00:04:54.760Z,13.31
2022-08-28T00:07:22.324Z,13.25
2022-08-28T00:09:48.845Z,13.20
2022-08-28T00:12:15.242Z,13.30
2022-08-28T00:14:41.933Z,13.27
2022-08-28T00:17:08.465Z,13.12
2022-08-28T00:19:38.454Z,13.05
2022-08-28T00:22:06.100Z,13.06
2022-08-28T00:24:32.942Z,12.81
2022-08-28T00:27:18.462Z,12.72
2022-08-28T00:29:45.201Z,12.68
2022-08-28T00:32:11.828Z,12.58
2022-08-28T00:34:39.134Z,12.68
2022-08-28T00:37:07.297Z,12.67
2022-08-28T00:39:33.691Z,12.64
2022-08-28T00:42:00.342Z,12.70
2022-08-28T00:44:28.968Z,12.87
2022-08-28T00:46:57.610Z,12.68
2022-08-28T00:49:27.457Z,12.49
2022-08-28T00:52:12.431Z,12.29
2022-08-28T00:54:58.822Z,12.35
2022-08-28T00:57:30.725Z,12.35
2022-08-28T00:59:57.414Z,12.30
2022-08-28T01:02:23.891Z,12.14
2022-08-28T01:04:50.881Z,12.16
2022-08-28T01:07:18.079Z,12.09
2022-08-28T01:09:48.846Z,12.11
2022-08-28T01:12:19.479Z,12.07
2022-08-28T01:14:48.369Z,11.95
2022-08-28T01:17:17.535Z,11.92
2022-08-28T01:19:56.335Z,11.93
2022-08-28T01:22:28.989Z,12.01
2022-08-28T01:25:03.294Z,12.10
2022-08-28T01:27:29.946Z,12.07
2022-08-28T01:29:57.529Z,12.09
2022-08-28T01:32:42.430Z,12.11
2022-08-28T01:35:13.546Z,12.20
2022-08-28T01:37:39.976Z,12.44
2022-08-28T01:40:09.437Z,12.32
2022-08-28T01:42:41.008Z,12.29
2022-08-28T01:45:10.972Z,12.16
2022-08-28T01:47:39.168Z,12.08
2022-08-28T01:50:09.274Z,12.26
2022-08-28T01:52:36.390Z,12.05
2022-08-28T01:55:05.170Z,11.99
2022-08-28T01:57:31.723Z,12.06
2022-08-28T01:59:58.162Z,11.97
2022-08-28T02:02:24.575Z,11.92
2022-08-28T02:04:51.061Z,11.95
2022-08-28T02:07:17.620Z,11.94
2022-08-28T02:09:44.048Z,11.82
2022-08-28T02:12:10.776Z,11.75
2022-08-28T02:14:38.379Z,11.63
2022-08-28T02:17:04.896Z,11.80
2022-08-28T02:19:32.150Z,11.92
2022-08-28T02:21:58.552Z,11.73
2022-08-28T02:24:24.952Z,11.77
2022-08-28T02:26:51.391Z,11.60
2022-08-28T02:29:18.609Z,11.61
2022-08-28T02:31:44.998Z,11.64
2022-08-28T02:34:11.431Z,11.56
2022-08-28T02:36:41.962Z,11.52
2022-08-28T02:39:08.584Z,11.44
2022-08-28T02:41:35.173Z,11.54
2022-08-28T02:44:02.239Z,11.53
2022-08-28T02:46:28.748Z,11.40
2022-08-28T02:48:56.201Z,11.34
2022-08-28T02:51:22.881Z,11.29
2022-08-28T02:53:50.387Z,11.34
2022-08-28T02:56:16.783Z,11.29
2022-08-28T02:58:43.239Z,11.30
2022-08-28T03:01:11.956Z,11.18
2022-08-28T03:03:39.714Z,11.28
2022-08-28T03:06:09.312Z,11.15
2022-08-28T03:08:35.802Z,11.23
2022-08-28T03:11:02.208Z,11.19
2022-08-28T03:13:30.028Z,11.14
2022-08-28T03:15:56.886Z,11.20
2022-08-28T03:18:25.373Z,11.07
2022-08-28T03:20:52.882Z,11.18
2022-08-28T03:23:28.195Z,11.26
2022-08-28T03:26:02.099Z,11.32
2022-08-28T03:28:32.750Z,11.30
2022-08-28T03:30:59.453Z,11.51
2022-08-28T03:33:27.167Z,11.48
2022-08-28T03:35:55.149Z,11.55
2022-08-28T03:38:22.185Z,11.53
2022-08-28T03:40:49.119Z,11.65
2022-08-28T03:43:19.928Z,11.56
2022-08-28T03:45:58.893Z,11.53
2022-08-28T03:48:27.919Z,11.54
2022-08-28T03:50:55.333Z,11.54
2022-08-28T03:53:24.986Z,11.49
2022-08-28T03:55:52.294Z,11.52
2022-08-28T03:58:19.355Z,11.32
2022-08-28T04:00:46.678Z,11.43
2022-08-28T04:03:13.607Z,11.44
2022-08-28T04:05:41.603Z,11.50
2022-08-28T04:08:08.693Z,11.46
2022-08-28T04:10:36.625Z,11.59
2022-08-28T04:13:03.462Z,11.55
2022-08-28T04:15:30.129Z,11.46
2022-08-28T04:17:56.530Z,11.47
2022-08-28T04:20:22.991Z,11.65
2022-08-28T04:22:49.891Z,11.65
2022-08-28T04:25:22.362Z,11.77
2022-08-28T04:27:50.305Z,11.63
2022-08-28T04:30:16.884Z,11.63
2022-08-28T04:32:43.406Z,11.69
2022-08-28T04:35:12.830Z,11.62
2022-08-28T04:37:40.203Z,11.68
2022-08-28T04:40:11.814Z,11.71
2022-08-28T04:42:39.887Z,11.80
2022-08-28T04:45:07.570Z,12.00
2022-08-28T04:47:37.918Z,12.02
2022-08-28T04:50:06.451Z,11.95
2022-08-28T04:52:32.872Z,11.72
2022-08-28T04:54:59.265Z,11.63
2022-08-28T04:57:26.183Z,11.44
2022-08-28T04:59:52.570Z,11.36
2022-08-28T05:02:19.025Z,11.34
2022-08-28T05:04:45.508Z,11.39
2022-08-28T05:07:11.898Z,11.56
2022-08-28T05:09:38.933Z,11.68
2022-08-28T05:12:05.899Z,11.60
2022-08-28T05:14:32.420Z,11.64
2022-08-28T05:16:58.995Z,11.74
2022-08-28T05:19:27.751Z,11.81
2022-08-28T05:21:54.895Z,11.77
2022-08-28T05:24:22.382Z,11.85
2022-08-28T05:26:49.117Z,11.96
2022-08-28T05:29:16.825Z,12.00
2022-08-28T05:31:44.102Z,12.03
2022-08-28T05:34:12.611Z,12.10
2022-08-28T05:36:39.479Z,12.13
2022-08-28T05:39:09.181Z,12.30
2022-08-28T05:41:36.172Z,12.33
2022-08-28T05:44:05.797Z,12.44
2022-08-28T05:46:33.507Z,12.44
2022-08-28T05:49:00.392Z,12.48
2022-08-28T05:51:27.619Z,12.67
2022-08-28T05:53:57.444Z,12.86
2022-08-28T05:56:29.563Z,12.91
2022-08-28T05:58:57.716Z,12.99
2022-08-28T06:01:30.222Z,12.99
2022-08-28T06:04:05.134Z,13.14
2022-08-28T06:06:34.418Z,13.26
2022-08-28T06:09:04.919Z,13.32
2022-08-28T06:11:32.606Z,13.46
2022-08-28T06:14:01.779Z,13.61
2022-08-28T06:16:32.137Z,13.69
2022-08-28T06:18:59.154Z,13.81
2022-08-28T06:21:26.018Z,13.98
2022-08-28T06:23:52.459Z,14.20
2022-08-28T06:26:18.870Z,14.39
2022-08-28T06:28:45.296Z,14.58
2022-08-28T06:31:23.361Z,14.72
2022-08-28T06:33:52.219Z,14.86
2022-08-28T06:36:18.609Z,15.06
2022-08-28T06:38:46.700Z,15.35
2022-08-28T06:41:15.423Z,15.49
2022-08-28T06:43:42.008Z,15.78
2022-08-28T06:46:08.560Z,16.06
2022-08-28T06:48:35.144Z,16.21
2022-08-28T06:51:04.994Z,16.46
2022-08-28T06:53:31.431Z,16.52
2022-08-28T06:56:08.377Z,16.91
2022-08-28T06:58:41.347Z,17.32
2022-08-28T07:01:32.925Z,18.39
2022-08-28T07:04:09.013Z,19.78
2022-08-28T07:06:38.014Z,18.84
2022-08-28T07:09:07.344Z,18.69
2022-08-28T07:11:35.251Z,19.36
2022-08-28T07:14:03.021Z,19.62
2022-08-28T07:16:37.929Z,19.73
2022-08-28T07:19:05.827Z,20.15
2022-08-28T07:21:38.162Z,20.62
2022-08-28T07:24:06.805Z,20.10
2022-08-28T07:26:33.954Z,20.50
2022-08-28T07:29:10.297Z,20.09
2022-08-28T07:31:44.336Z,20.25
2022-08-28T07:34:13.475Z,20.88
2022-08-28T07:36:40.299Z,21.09
2022-08-28T07:39:08.332Z,20.57
2022-08-28T07:41:39.041Z,20.63
2022-08-28T07:44:24.984Z,20.74
2022-08-28T07:46:56.393Z,21.32
2022-08-28T07:49:24.177Z,21.23
2022-08-28T07:51:50.684Z,21.54
2022-08-28T07:54:20.961Z,21.09
2022-08-28T07:56:47.391Z,21.11
2022-08-28T07:59:16.986Z,20.64
2022-08-28T08:01:46.281Z,20.95
2022-08-28T08:04:13.278Z,21.32
2022-08-28T08:06:41.061Z,21.91
2022-08-28T08:09:11.144Z,21.58
2022-08-28T08:11:38.091Z,21.83
2022-08-28T08:14:05.899Z,21.72
2022-08-28T08:16:39.263Z,21.72
2022-08-28T08:19:06.480Z,21.96
2022-08-28T08:21:32.868Z,21.74
2022-08-28T08:23:59.592Z,20.76
2022-08-28T08:26:30.633Z,19.89
2022-08-28T08:28:57.263Z,19.42
2022-08-28T08:31:27.567Z,19.13
2022-08-28T08:33:57.239Z,18.78
2022-08-28T08:36:25.746Z,19.12
2022-08-28T08:38:59.277Z,18.94
2022-08-28T08:41:34.515Z,20.06
2022-08-28T08:44:09.751Z,20.84
2022-08-28T08:47:03.576Z,21.24
2022-08-28T08:49:35.924Z,21.44
2022-08-28T08:52:11.479Z,21.37
2022-08-28T08:54:42.886Z,21.90
2022-08-28T08:57:12.855Z,22.43
2022-08-28T08:59:39.939Z,22.77
2022-08-28T09:02:14.935Z,23.11
2022-08-28T09:04:50.555Z,22.71
2022-08-28T09:07:21.015Z,22.38
2022-08-28T09:09:53.391Z,22.40
2022-08-28T09:12:23.107Z,22.71
2022-08-28T09:15:05.253Z,23.44
2022-08-28T09:17:35.776Z,22.43
2022-08-28T09:20:02.380Z,21.58
2022-08-28T09:22:28.768Z,21.04
2022-08-28T09:24:55.511Z,22.20
2022-08-28T09:27:29.149Z,22.93
2022-08-28T09:29:58.919Z,22.05
2022-08-28T09:32:34.222Z,21.20
2022-08-28T09:35:01.149Z,21.25
2022-08-28T09:37:32.010Z,20.96
2022-08-28T09:40:15.853Z,20.47
2022-08-28T09:43:25.425Z,20.08
2022-08-28T09:45:59.612Z,20.17
2022-08-28T09:48:35.619Z,20.04
2022-08-28T09:51:08.783Z,20.19
2022-08-28T09:53:56.389Z,21.10
2022-08-28T09:56:27.235Z,21.76
2022-08-28T09:58:57.169Z,22.13
2022-08-28T10:01:41.200Z,22.90
2022-08-28T10:04:22.886Z,22.77
2022-08-28T10:06:54.857Z,21.91
2022-08-28T10:09:30.998Z,20.77
2022-08-28T10:12:08.666Z,20.03
2022-08-28T10:14:52.694Z,20.07
2022-08-28T10:17:39.320Z,20.14
2022-08-28T10:20:22.310Z,19.93
2022-08-28T10:22:51.661Z,19.76
2022-08-28T10:25:30.517Z,19.92
2022-08-28T10:28:14.950Z,20.40
2022-08-28T10:30:53.421Z,21.55
2022-08-28T10:33:39.674Z,22.69
2022-08-28T10:36:27.399Z,23.00
2022-08-28T10:39:19.239Z,21.84
2022-08-28T10:41:48.771Z,21.96
2022-08-28T10:44:24.450Z,22.91
2022-08-28T10:46:58.347Z,23.42
2022-08-28T10:49:31.832Z,23.40
2022-08-28T10:52:05.146Z,22.93
2022-08-28T10:54:46.992Z,21.79
2022-08-28T10:57:39.958Z,20.89
2022-08-28T11:00:18.165Z,21.43
2022-08-28T11:02:50.412Z,23.04
2022-08-28T11:05:23.214Z,23.67
2022-08-28T11:07:55.267Z,22.17
2022-08-28T11:10:36.835Z,21.09
2022-08-28T11:13:06.269Z,21.06
2022-08-28T11:15:36.992Z,21.49
2022-08-28T11:18:16.136Z,21.54
2022-08-28T11:21:10.886Z,22.81
2022-08-28T11:23:47.083Z,21.92
2022-08-28T11:26:23.134Z,20.95
2022-08-28T11:28:49.831Z,21.09
2022-08-28T11:31:24.692Z,20.97
2022-08-28T11:33:58.899Z,22.55
2022-08-28T11:36:29.844Z,22.45
2022-08-28T11:38:56.325Z,21.35
2022-08-28T11:41:33.424Z,22.29
2022-08-28T11:44:17.810Z,22.48
2022-08-28T11:46:51.951Z,22.85
2022-08-28T11:49:27.359Z,23.20
2022-08-28T11:52:20.496Z,22.18
2022-08-28T11:55:01.977Z,21.60
2022-08-28T12:00:52.603Z,22.08
2022-08-28T12:03:38.216Z,21.65
2022-08-28T12:06:06.644Z,22.46
2022-08-28T12:08:44.939Z,23.35
2022-08-28T12:11:40.754Z,23.81
2022-08-28T12:14:13.088Z,23.91
2022-08-28T12:17:00.916Z,22.51
2022-08-28T12:19:32.206Z,22.09
2022-08-28T12:22:04.956Z,21.68
2022-08-28T12:24:31.400Z,22.58
2022-08-28T12:26:59.070Z,23.13
2022-08-28T12:29:29.315Z,23.26
2022-08-28T12:32:25.469Z,23.96
2022-08-28T12:34:57.562Z,23.25
2022-08-28T12:37:50.952Z,22.87
2022-08-28T12:40:41.218Z,21.65
2022-08-28T12:43:10.699Z,21.66
2022-08-28T12:45:53.669Z,22.82
2022-08-28T12:48:27.615Z,23.49
2022-08-28T12:51:05.119Z,22.25
2022-08-28T12:53:47.166Z,22.60
2022-08-28T12:56:17.543Z,23.33
2022-08-28T12:58:45.469Z,22.77
2022-08-28T13:01:25.756Z,21.71
2022-08-28T13:03:57.388Z,22.57
2022-08-28T13:06:30.976Z,23.28
2022-08-28T13:09:01.147Z,22.88
2022-08-28T13:11:34.312Z,22.06
2022-08-28T13:14:00.863Z,22.58
2022-08-28T13:16:42.148Z,22.58
2022-08-28T13:19:23.463Z,21.98
2022-08-28T13:22:01.844Z,21.52
2022-08-28T13:24:31.272Z,22.04
2022-08-28T13:27:12.119Z,21.88
2022-08-28T13:29:59.697Z,22.90
2022-08-28T13:32:30.205Z,23.01
2022-08-28T13:35:20.504Z,22.56
2022-08-28T13:37:52.428Z,22.53
2022-08-28T13:40:56.506Z,22.48
2022-08-28T13:43:16.503Z,22.73
2022-08-28T13:45:48.073Z,21.55
2022-08-28T13:48:17.484Z,22.44
2022-08-28T13:50:47.351Z,22.04
2022-08-28T13:53:16.751Z,21.89
2022-08-28T13:55:43.798Z,21.72
2022-08-28T13:58:10.614Z,21.49
2022-08-28T14:00:43.336Z,22.10
2022-08-28T14:03:28.467Z,22.55
2022-08-28T14:05:54.927Z,22.39
2022-08-28T14:08:21.888Z,21.95
2022-08-28T14:10:48.780Z,21.54
2022-08-28T14:13:15.273Z,21.56
2022-08-28T14:15:41.756Z,21.31
2022-08-28T14:18:08.190Z,21.28
2022-08-28T14:20:34.600Z,21.45
2022-08-28T14:23:00.999Z,20.74
2022-08-28T14:25:27.395Z,20.84
2022-08-28T14:27:55.667Z,20.42
2022-08-28T14:30:22.800Z,20.71
2022-08-28T14:32:49.212Z,20.41
2022-08-28T14:35:15.603Z,20.39
2022-08-28T14:37:42.031Z,20.82
2022-08-28T14:40:09.937Z,21.08
2022-08-28T14:42:36.410Z,21.01
2022-08-28T14:45:02.938Z,20.84
2022-08-28T14:47:29.402Z,20.46
2022-08-28T14:49:55.850Z,20.18
2022-08-28T14:52:22.833Z,20.55
2022-08-28T14:54:49.240Z,20.48
2022-08-28T14:57:15.746Z,20.37
2022-08-28T14:59:42.216Z,20.61
2022-08-28T15:02:08.627Z,20.14
2022-08-28T15:04:37.644Z,20.20
2022-08-28T15:07:08.440Z,20.57
2022-08-28T15:09:37.376Z,20.48
2022-08-28T15:12:04.303Z,20.25
2022-08-28T15:14:31.311Z,20.23
2022-08-28T15:16:57.781Z,20.51
2022-08-28T15:19:24.437Z,20.36
2022-08-28T15:21:53.839Z,20.17
2022-08-28T15:24:26.959Z,20.35
2022-08-28T15:26:53.747Z,20.29
2022-08-28T15:29:20.500Z,20.13
2022-08-28T15:31:49.097Z,20.17
2022-08-28T15:34:18.695Z,20.36
2022-08-28T15:36:54.663Z,20.48
2022-08-28T15:39:42.536Z,19.86
2022-08-28T15:42:09.892Z,20.14
2022-08-28T15:44:37.331Z,20.34
2022-08-28T15:47:04.940Z,20.09
2022-08-28T15:49:38.941Z,20.60
2022-08-28T15:52:13.638Z,20.03
2022-08-28T15:54:41.274Z,20.06
2022-08-28T15:57:07.846Z,20.49
2022-08-28T15:59:44.148Z,20.58
2022-08-28T16:02:15.955Z,20.73
2022-08-28T16:04:42.412Z,20.60
2022-08-28T16:07:08.864Z,21.02
2022-08-28T16:09:35.368Z,20.96
2022-08-28T16:12:01.782Z,21.10
2022-08-28T16:14:28.309Z,21.00
2022-08-28T16:16:54.784Z,21.45
2022-08-28T16:19:21.363Z,21.49
2022-08-28T16:21:47.773Z,20.85
2022-08-28T16:24:14.189Z,20.49
2022-08-28T16:26:40.899Z,20.11
2022-08-28T16:29:07.467Z,20.00
2022-08-28T16:31:34.323Z,20.23
2022-08-28T16:34:02.945Z,20.60
2022-08-28T16:36:30.196Z,20.02
2022-08-28T16:39:00.435Z,19.82
2022-08-28T16:41:31.858Z,19.17
2022-08-28T16:43:58.695Z,18.90
2022-08-28T16:46:27.055Z,18.91
2022-08-28T16:48:54.419Z,18.85
2022-08-28T16:51:21.475Z,19.16
2022-08-28T16:53:48.228Z,19.24
2022-08-28T16:56:17.205Z,19.20
2022-08-28T16:58:44.868Z,19.27
2022-08-28T17:01:12.872Z,19.39
2022-08-28T17:03:40.220Z,19.30
2022-08-28T17:06:11.327Z,18.97
2022-08-28T17:08:37.754Z,19.25
2022-08-28T17:11:06.446Z,19.12
2022-08-28T17:13:33.876Z,19.09
2022-08-28T17:16:00.670Z,19.12
2022-08-28T17:18:27.119Z,19.01
2022-08-28T17:21:12.902Z,19.09
2022-08-28T17:23:39.367Z,19.19
2022-08-28T17:26:06.175Z,19.15
2022-08-28T17:28:32.610Z,19.20
2022-08-28T17:30:59.346Z,18.90
2022-08-28T17:33:25.893Z,18.86
2022-08-28T17:35:55.039Z,18.78
2022-08-28T17:38:21.888Z,18.81
2022-08-28T17:40:48.295Z,18.83
2022-08-28T17:43:14.779Z,18.72
2022-08-28T17:45:41.183Z,18.56
2022-08-28T17:48:07.660Z,18.60
2022-08-28T17:50:35.322Z,18.43
2022-08-28T17:53:01.708Z,18.41
2022-08-28T17:55:28.248Z,18.37
2022-08-28T17:57:55.043Z,18.21
2022-08-28T18:00:21.642Z,18.24
2022-08-28T18:02:52.125Z,18.14
2022-08-28T18:05:18.533Z,18.15
2022-08-28T18:07:45.193Z,18.06
2022-08-28T18:10:12.419Z,17.84
2022-08-28T18:12:40.622Z,18.11
2022-08-28T18:15:09.763Z,18.19
2022-08-28T18:17:38.061Z,18.07
2022-08-28T18:20:06.545Z,18.09
2022-08-28T18:22:32.947Z,18.13
2022-08-28T18:24:59.379Z,18.07
2022-08-28T18:27:27.804Z,17.91
2022-08-28T18:29:54.313Z,17.67
2022-08-28T18:32:20.783Z,17.73
2022-08-28T18:34:47.325Z,17.77
2022-08-28T18:37:13.767Z,17.76
2022-08-28T18:39:40.346Z,17.70
2022-08-28T18:42:09.360Z,17.65
2022-08-28T18:44:35.805Z,17.67
2022-08-28T18:47:02.249Z,17.53
2022-08-28T18:49:28.654Z,17.60
2022-08-28T18:51:55.084Z,17.61
2022-08-28T18:54:21.847Z,17.58
2022-08-28T18:56:49.700Z,17.54
2022-08-28T18:59:17.306Z,17.51
2022-08-28T19:01:43.947Z,17.69
2022-08-28T19:04:10.525Z,17.41
2022-08-28T19:06:36.955Z,17.60
2022-08-28T19:09:05.557Z,17.68
2022-08-28T19:11:32.137Z,17.71
2022-08-28T19:13:59.442Z,17.58
2022-08-28T19:16:31.634Z,17.80
2022-08-28T19:18:58.064Z,17.68
2022-08-28T19:21:24.624Z,17.64
2022-08-28T19:23:55.925Z,17.52
2022-08-28T19:26:24.484Z,17.49
2022-08-28T19:28:51.470Z,17.42
2022-08-28T19:31:18.255Z,17.22
2022-08-28T19:33:46.393Z,17.27
2022-08-28T19:36:13.663Z,17.27
2022-08-28T19:38:40.597Z,17.16
2022-08-28T19:41:09.545Z,17.15
2022-08-28T19:43:42.929Z,17.15
2022-08-28T19:46:18.718Z,17.15
2022-08-28T19:48:48.551Z,17.01
2022-08-28T19:51:17.671Z,17.02
2022-08-28T19:53:56.746Z,17.17
2022-08-28T19:56:26.996Z,17.19
2022-08-28T19:58:55.015Z,17.11
2022-08-28T20:01:21.518Z,17.11
2022-08-28T20:03:47.962Z,17.00
2022-08-28T20:06:14.490Z,16.95
2022-08-28T20:08:40.989Z,16.93
2022-08-28T20:11:07.761Z,16.96
2022-08-28T20:13:34.847Z,16.94
2022-08-28T20:16:05.520Z,16.86
2022-08-28T20:18:33.314Z,17.00
2022-08-28T20:20:59.895Z,16.92
2022-08-28T20:23:26.280Z,17.02
2022-08-28T20:25:52.852Z,17.07
2022-08-28T20:28:19.407Z,16.91
2022-08-28T20:30:46.876Z,16.89
2022-08-28T20:33:14.055Z,16.84
2022-08-28T20:35:40.656Z,16.93
2022-08-28T20:38:07.178Z,16.86
2022-08-28T20:40:33.778Z,17.00
2022-08-28T20:43:00.710Z,16.88
2022-08-28T20:45:27.356Z,16.80
2022-08-28T20:47:53.991Z,16.83
2022-08-28T20:50:20.571Z,16.74
2022-08-28T20:52:46.968Z,16.83
2022-08-28T20:55:14.802Z,16.76
2022-08-28T20:57:41.371Z,16.79
2022-08-28T21:00:10.602Z,16.67
2022-08-28T21:02:37.312Z,16.68
2022-08-28T21:05:04.951Z,16.72
2022-08-28T21:07:33.355Z,16.65
2022-08-28T21:10:06.941Z,16.73
2022-08-28T21:12:35.560Z,16.66
2022-08-28T21:15:02.325Z,16.67
2022-08-28T21:17:30.679Z,16.67
2022-08-28T21:20:00.164Z,16.82
2022-08-28T21:22:26.877Z,16.68
2022-08-28T21:24:53.487Z,16.65
2022-08-28T21:27:19.944Z,16.74
2022-08-28T21:29:47.784Z,16.69
2022-08-28T21:32:14.218Z,16.77
2022-08-28T21:34:40.604Z,16.81
2022-08-28T21:37:06.979Z,16.81
2022-08-28T21:39:33.802Z,16.70
2022-08-28T21:42:00.533Z,16.77
2022-08-28T21:44:26.920Z,16.87
2022-08-28T21:46:53.386Z,16.79
2022-08-28T21:49:20.344Z,16.66
2022-08-28T21:51:47.011Z,16.58
2022-08-28T21:54:13.570Z,16.37
2022-08-28T21:56:40.060Z,16.30
2022-08-28T21:59:06.485Z,16.18
2022-08-28T22:01:33.016Z,16.17
2022-08-28T22:03:59.476Z,15.95
2022-08-28T22:06:26.864Z,15.73
2022-08-28T22:08:54.585Z,15.84
2022-08-28T22:11:24.818Z,15.61
2022-08-28T22:13:52.483Z,15.54
2022-08-28T22:16:19.107Z,15.44
2022-08-28T22:18:45.585Z,15.27
2022-08-28T22:21:35.955Z,15.37
2022-08-28T22:24:02.559Z,15.41
2022-08-28T22:26:29.401Z,15.27
2022-08-28T22:28:56.096Z,15.17
2022-08-28T22:31:22.595Z,15.39
2022-08-28T22:33:49.135Z,15.49
2022-08-28T22:36:17.317Z,15.53
2022-08-28T22:38:47.104Z,15.64
2022-08-28T22:41:20.208Z,15.52
2022-08-28T22:43:48.271Z,15.62
2022-08-28T22:46:17.080Z,15.47
2022-08-28T22:48:43.590Z,15.68
2022-08-28T22:51:12.779Z,15.70
2022-08-28T22:53:41.491Z,15.52
2022-08-28T22:56:09.876Z,15.60
2022-08-28T22:58:37.140Z,15.62
2022-08-28T23:01:24.591Z,15.66
2022-08-28T23:03:51.138Z,15.63
2022-08-28T23:06:18.092Z,15.73
2022-08-28T23:08:44.534Z,15.79
2022-08-28T23:11:11.368Z,15.67
2022-08-28T23:13:38.362Z,15.60
2022-08-28T23:16:05.683Z,15.63
2022-08-28T23:18:46.410Z,15.63
2022-08-28T23:21:20.586Z,15.66
2022-08-28T23:23:47.125Z,15.54
2022-08-28T23:26:15.814Z,15.70
2022-08-28T23:28:43.010Z,15.77
2022-08-28T23:31:10.095Z,15.60
2022-08-28T23:33:36.590Z,15.51
2022-08-28T23:36:03.496Z,15.67
2022-08-28T23:38:30.183Z,15.58
2022-08-28T23:40:56.654Z,15.70
2022-08-28T23:43:23.290Z,15.58
2022-08-28T23:45:49.889Z,15.64
2022-08-28T23:48:16.718Z,15.70
2022-08-28T23:50:43.626Z,15.63
2022-08-28T23:53:10.991Z,15.36
2022-08-28T23:55:38.196Z,15.41
2022-08-28T23:58:05.355Z,15.43
